Manitowish Waters, WI

5:39 AM CDT on May 30, 2015 (GMT -0500)
Spider Lake Channel | | Change Station
CLOSE
Current Station
Personal Weather Station
Location: Manitowish Waters, WI
Elevation: 1621 ft
Nearby Weather Stations
Active Advisory: Freeze Warning

Elev 1621 ft 46.13 °N, 89.81 °W | Updated 4 seconds ago

Overcast
Overcast
47.7 °F
Feels Like 48 °F
N
2.5
Wind Variable Wind from NNW
Gusts 2.5 mph

Today
High -- | Low -- °F
--% Chance of Precip.
Yesterday
High -- | Low -- °F
Precip. -- in
5:13 AM 8:41 PM
Waxing Gibbous, 89% visible
Pressure 30.08 in
Visibility 10.0 miles
Clouds Overcast 500 ft
Windchill 48 °F
Dew Point 48 °F
Humidity 99%
Rainfall 0.00 in
Snow Depth Not available.
UV 0.0 out of 12
Pollen 2.40 out of 12
Air Quality Not available.
Flu Activity Sporadic
METAR KD25 301015Z AUTO 36006G16KT 10SM OVC005 08/08 A3008 RMK AO2 T00800080

More Conditions Fewer Conditions

Pressure 30.08 in
Visibility 10.0 miles
Clouds Overcast 500 ft
Windchill 48 °F
Dew Point 48 °F
Humidity 99%
Rainfall 0.00 in
Snow Depth Not available.
UV 0.0 out of 12
Pollen 2.40 out of 12
Air Quality Not available.
Flu Activity Sporadic
METAR KD25 301015Z AUTO 36006G16KT 10SM OVC005 08/08 A3008 RMK AO2 T00800080

More Conditions Fewer Conditions

10-Day Weather Forecast

Almanac

Astronomy

May. 30, 2015 Rise Set
Actual Time
Civil Twilight
Nautical Twilight
Astronomical Twilight
Moon
Length of Visible Light
Length of Day
Tomorrow will be .
, % of the Moon is Illuminated

Today's Extremes

State Highs State Lows

Community

WunderPhotos

Upload Photos

1,825,478 photos uploaded!

WunderBlogs® & News

Nearby

Air Quality

  Air Quality AQ Index Pollutant
Not available.

Snow Depth

Station Depth Elevation

Earthquake Activity

City Distance Mag. Time & Date
Minimum magnitude displayed is 2.5.

Coastal Water Temperatures

Place Temperature

Stations

Nearby Weather Stations

Station Location Temp. Windchill Dew Point Humidity Wind Precip. Elev Updated Type
                   
Freeze Warning
Statement as of 4:10 AM CDT on May 30, 2015

... Freeze warning in effect from 3 am to 8 am CDT Sunday...

The National Weather Service in Green Bay has issued a freeze
warning... which is in effect from 3 am to 8 am CDT Sunday.

* Temperature... overnight low temperatures of 27 to 34 degrees are
expected.

* Impacts... temperatures this cold can kill cold-sensitive
vegetation.

Precautionary/preparedness actions...

A freeze warning means sub-freezing temperatures are expected.
These conditions will kill cold-sensitive vegetation. Where
possible... bring sensitive plants into a garage or shed overnight.
If that is not possible... cover them to protect them from the
cold.